createdAt,value
2019-02-16T00:01:09.948Z,9.80
2019-02-16T00:06:15.321Z,10.30
2019-02-16T00:11:20.633Z,10.70
2019-02-16T00:16:25.944Z,11.00
2019-02-16T00:21:31.221Z,11.40
2019-02-16T00:26:36.517Z,11.50
2019-02-16T00:31:41.813Z,11.60
2019-02-16T00:36:47.127Z,11.50
2019-02-16T00:41:52.433Z,11.20
2019-02-16T00:46:57.755Z,10.60
2019-02-16T00:52:03.058Z,10.20
2019-02-16T00:57:08.419Z,9.80
2019-02-16T01:02:13.793Z,9.60
2019-02-16T01:07:19.109Z,9.90
2019-02-16T01:12:24.402Z,10.20
2019-02-16T01:17:29.711Z,10.60
2019-02-16T01:22:34.984Z,11.30
2019-02-16T01:27:40.285Z,10.90
2019-02-16T01:32:45.579Z,10.70
2019-02-16T01:37:50.871Z,10.30
2019-02-16T01:42:56.173Z,10.90
2019-02-16T01:48:01.481Z,10.60
2019-02-16T01:53:06.816Z,11.00
2019-02-16T01:58:12.103Z,11.40
2019-02-16T02:03:17.408Z,10.80
2019-02-16T02:08:22.701Z,10.90
2019-02-16T02:13:28.272Z,10.60
2019-02-16T02:18:33.554Z,10.60
2019-02-16T02:23:38.870Z,11.20
2019-02-16T02:28:44.168Z,11.70
2019-02-16T02:33:49.470Z,12.10
2019-02-16T02:38:54.767Z,12.10
2019-02-16T02:44:00.073Z,12.40
2019-02-16T02:49:05.351Z,12.70
2019-02-16T02:54:10.634Z,12.50
2019-02-16T02:59:15.933Z,12.40
2019-02-16T03:04:21.241Z,12.30
2019-02-16T03:09:26.554Z,12.00
2019-02-16T03:14:32.097Z,11.50
2019-02-16T03:19:37.413Z,11.60
2019-02-16T03:24:42.720Z,12.00
2019-02-16T03:29:51.275Z,12.10
2019-02-16T03:35:02.369Z,12.30
2019-02-16T03:40:09.960Z,11.90
2019-02-16T03:45:15.277Z,11.90
2019-02-16T03:50:20.576Z,12.00
2019-02-16T03:55:25.869Z,11.90
2019-02-16T04:00:31.167Z,11.50
2019-02-16T04:05:36.481Z,11.10
2019-02-16T04:10:41.792Z,10.30
2019-02-16T04:15:47.250Z,10.20
2019-02-16T04:20:52.479Z,9.90
2019-02-16T04:25:57.777Z,10.90
2019-02-16T04:31:03.074Z,10.20
2019-02-16T04:36:08.358Z,9.90
2019-02-16T04:41:13.641Z,9.80
2019-02-16T04:46:19.009Z,9.90
2019-02-16T04:51:24.388Z,10.20
2019-02-16T04:56:29.718Z,9.50
2019-02-16T05:01:34.981Z,8.60
2019-02-16T05:06:40.281Z,8.90
2019-02-16T05:11:45.561Z,9.50
2019-02-16T05:16:50.881Z,8.50
2019-02-16T05:21:56.178Z,8.90
2019-02-16T05:27:01.482Z,8.60
2019-02-16T05:32:06.786Z,9.00
2019-02-16T05:37:12.074Z,8.70
2019-02-16T05:42:18.380Z,8.60
2019-02-16T05:47:23.673Z,9.20
2019-02-16T05:52:29.090Z,8.50
2019-02-16T05:57:34.339Z,9.20
2019-02-16T06:02:39.630Z,9.60
2019-02-16T06:07:44.933Z,9.30
2019-02-16T06:12:50.221Z,8.70
2019-02-16T06:17:55.505Z,8.50
2019-02-16T06:23:04.469Z,9.10
2019-02-16T06:28:07.785Z,9.00
2019-02-16T06:33:13.085Z,9.00
2019-02-16T06:38:18.383Z,9.20
2019-02-16T06:43:23.666Z,9.20
2019-02-16T06:48:28.964Z,9.30
2019-02-16T06:53:34.250Z,9.20
2019-02-16T06:58:39.559Z,8.90
2019-02-16T07:03:44.921Z,8.80
2019-02-16T07:08:50.222Z,8.60
2019-02-16T07:13:55.504Z,7.70
2019-02-16T07:19:05.334Z,7.60
2019-02-16T07:24:11.926Z,7.60
2019-02-16T07:29:17.222Z,7.80
2019-02-16T07:34:22.919Z,8.70
2019-02-16T07:39:28.261Z,8.40
2019-02-16T07:44:37.914Z,7.70
2019-02-16T07:49:56.699Z,7.60
2019-02-16T07:55:04.003Z,8.60
2019-02-16T08:00:10.933Z,8.60
2019-02-16T08:05:36.121Z,9.20
2019-02-16T08:10:59.277Z,9.00
2019-02-16T08:16:06.232Z,8.90
2019-02-16T08:21:19.188Z,8.60
2019-02-16T08:26:26.126Z,9.20
2019-02-16T08:31:38.662Z,9.70
2019-02-16T08:36:54.687Z,10.00
2019-02-16T08:42:01.628Z,9.90
2019-02-16T08:47:17.269Z,9.80
2019-02-16T08:52:26.884Z,9.30
2019-02-16T08:57:42.852Z,9.30
2019-02-16T09:20:18.485Z,10.00
2019-02-16T09:25:31.163Z,10.30
2019-02-16T09:30:38.114Z,10.40
2019-02-16T09:35:45.075Z,10.20
2019-02-16T09:40:54.774Z,11.10
2019-02-16T09:46:01.736Z,13.00
2019-02-16T09:51:11.721Z,14.20
2019-02-16T09:56:18.648Z,15.50
2019-02-16T10:01:28.568Z,16.80
2019-02-16T10:06:50.608Z,18.40
2019-02-16T10:11:57.548Z,19.00
2019-02-16T10:17:08.543Z,19.70
2019-02-16T10:22:16.262Z,18.60
2019-02-16T10:27:26.267Z,17.20
2019-02-16T10:32:35.924Z,15.90
2019-02-16T10:37:42.969Z,15.70
2019-02-16T10:42:49.919Z,15.60
2019-02-16T10:47:56.919Z,15.20
2019-02-16T10:53:03.916Z,15.40
2019-02-16T10:58:10.881Z,15.70
2019-02-16T11:03:25.458Z,15.60
2019-02-16T11:08:32.522Z,15.70
2019-02-16T11:13:44.335Z,15.70
2019-02-16T11:18:57.020Z,15.80
2019-02-16T11:24:03.954Z,16.00
2019-02-16T11:29:11.250Z,16.40
2019-02-16T11:34:25.144Z,16.00
2019-02-16T11:39:47.110Z,16.40
2019-02-16T11:44:59.789Z,16.40
2019-02-16T11:50:08.591Z,16.80
2019-02-16T11:55:16.698Z,17.40
2019-02-16T12:00:37.188Z,17.40
2019-02-16T12:05:46.969Z,17.70
2019-02-16T12:11:00.282Z,17.40
2019-02-16T12:16:19.330Z,16.90
2019-02-16T12:21:38.609Z,17.20
2019-02-16T12:27:01.867Z,17.50
2019-02-16T12:32:11.970Z,18.30
2019-02-16T12:37:18.908Z,18.10
2019-02-16T12:42:37.758Z,18.00
2019-02-16T12:47:47.188Z,19.20
2019-02-16T12:52:54.117Z,20.60
2019-02-16T12:58:01.069Z,22.10
2019-02-16T13:03:24.237Z,22.30
2019-02-16T13:08:47.661Z,23.60
2019-02-16T13:14:00.795Z,24.00
2019-02-16T13:19:07.722Z,23.90
2019-02-16T13:24:20.268Z,24.40
2019-02-16T13:29:36.433Z,24.20
2019-02-16T13:34:46.612Z,23.90
2019-02-16T13:40:05.666Z,23.00
2019-02-16T13:45:18.322Z,22.60
2019-02-16T13:50:25.268Z,21.60
2019-02-16T13:55:48.728Z,20.80
2019-02-16T14:00:55.694Z,20.40
2019-02-16T14:06:14.445Z,19.90
2019-02-16T14:11:21.396Z,19.40
2019-02-16T14:16:31.623Z,19.50
2019-02-16T14:21:36.972Z,19.60
2019-02-16T14:26:42.292Z,19.60
2019-02-16T14:31:47.598Z,19.80
2019-02-16T14:36:52.929Z,19.90
2019-02-16T14:41:58.330Z,20.10
2019-02-16T14:47:03.593Z,19.60
2019-02-16T14:52:08.902Z,19.70
2019-02-16T14:57:14.228Z,20.30
2019-02-16T15:02:19.534Z,20.40
2019-02-16T15:07:24.835Z,20.70
2019-02-16T15:12:30.157Z,21.90
2019-02-16T15:17:35.474Z,21.70
2019-02-16T15:22:40.843Z,20.90
2019-02-16T15:27:46.152Z,20.10
2019-02-16T15:32:51.433Z,21.00
2019-02-16T15:37:57.702Z,20.50
2019-02-16T15:43:02.997Z,20.60
2019-02-16T15:48:08.305Z,20.40
2019-02-16T15:53:13.632Z,19.60
2019-02-16T15:58:18.935Z,18.90
2019-02-16T16:03:24.273Z,18.30
2019-02-16T16:08:43.144Z,17.90
2019-02-16T16:13:50.067Z,17.20
2019-02-16T16:18:57.013Z,16.30
2019-02-16T16:24:03.990Z,15.60
2019-02-16T16:29:27.334Z,15.50
2019-02-16T16:34:34.335Z,15.60
2019-02-16T16:39:57.525Z,15.90
2019-02-16T16:45:04.479Z,15.50
2019-02-16T16:50:20.401Z,15.40
2019-02-16T16:55:27.404Z,15.10
2019-02-16T17:00:36.986Z,14.90
2019-02-16T17:05:59.885Z,15.00
2019-02-16T17:11:07.015Z,15.30
2019-02-16T17:16:16.913Z,15.40
2019-02-16T17:21:23.973Z,14.90
2019-02-16T17:26:38.020Z,14.70
2019-02-16T17:31:45.216Z,14.70
2019-02-16T17:36:55.131Z,14.80
2019-02-16T17:42:02.125Z,14.40
2019-02-16T17:47:24.130Z,13.70
2019-02-16T17:52:31.118Z,13.40
2019-02-16T17:57:38.073Z,13.40
2019-02-16T18:02:48.125Z,13.30
2019-02-16T18:08:11.373Z,13.40
2019-02-16T18:13:19.273Z,13.30
2019-02-16T18:18:32.295Z,13.50
2019-02-16T18:23:44.970Z,13.50
2019-02-16T18:28:57.344Z,13.50
2019-02-16T18:34:06.336Z,13.70
2019-02-16T18:39:15.985Z,14.20
2019-02-16T18:44:41.806Z,14.20
2019-02-16T18:50:14.478Z,14.10
2019-02-16T18:55:38.092Z,13.60
2019-02-16T19:00:48.364Z,13.10
2019-02-16T19:06:01.101Z,12.70
2019-02-16T19:11:16.998Z,12.70
2019-02-16T19:16:23.974Z,12.80
2019-02-16T19:21:31.005Z,12.90
2019-02-16T19:26:43.715Z,12.70
2019-02-16T19:32:02.459Z,12.70
2019-02-16T19:37:09.456Z,12.80
2019-02-16T19:42:16.652Z,13.00
2019-02-16T19:47:32.640Z,13.10
2019-02-16T19:52:39.577Z,13.30
2019-02-16T19:57:46.601Z,13.10
2019-02-16T20:02:53.557Z,12.90
2019-02-16T20:08:00.509Z,13.10
2019-02-16T20:13:13.426Z,13.20
2019-02-16T20:18:29.377Z,13.30
2019-02-16T20:23:42.374Z,13.00
2019-02-16T20:28:55.009Z,12.60
2019-02-16T20:34:07.808Z,12.60
2019-02-16T20:39:31.490Z,12.70
2019-02-16T20:44:38.738Z,13.20
2019-02-16T20:49:45.834Z,13.60
2019-02-16T20:54:55.804Z,13.50
2019-02-16T21:00:02.729Z,12.80
2019-02-16T21:05:12.446Z,12.00
2019-02-16T21:10:34.410Z,12.00
2019-02-16T21:15:59.444Z,12.30
2019-02-16T21:21:22.917Z,12.20
2019-02-16T21:26:45.093Z,12.90
2019-02-16T21:31:52.127Z,12.80
2019-02-16T21:37:15.570Z,11.30
2019-02-16T21:42:25.176Z,10.10
2019-02-16T21:47:32.141Z,9.80
2019-02-16T21:52:45.043Z,10.40
2019-02-16T21:58:10.095Z,11.30
2019-02-16T22:03:19.571Z,11.80
2019-02-16T22:08:26.508Z,11.70
2019-02-16T22:13:31.809Z,11.80
2019-02-16T22:18:38.185Z,12.10
2019-02-16T22:23:43.485Z,12.00
2019-02-16T22:28:48.796Z,11.80
2019-02-16T22:33:54.100Z,11.90
2019-02-16T22:38:59.444Z,11.90
2019-02-16T22:44:04.759Z,11.90
2019-02-16T22:49:10.052Z,12.10
2019-02-16T22:54:15.417Z,12.60
2019-02-16T22:59:20.842Z,12.90
2019-02-16T23:04:27.512Z,13.10
2019-02-16T23:09:33.027Z,13.40
2019-02-16T23:14:38.311Z,13.10
2019-02-16T23:19:43.631Z,13.00
2019-02-16T23:24:48.929Z,12.70
2019-02-16T23:29:54.814Z,12.80
2019-02-16T23:35:01.570Z,12.90
2019-02-16T23:40:08.600Z,12.60
2019-02-16T23:45:13.920Z,12.40
2019-02-16T23:50:19.362Z,12.80
2019-02-16T23:55:24.681Z,13.00
